createdAt,value
2022-10-10T00:00:06.454Z,9.22
2022-10-10T00:02:33.177Z,9.19
2022-10-10T00:04:59.709Z,9.23
2022-10-10T00:07:26.324Z,9.20
2022-10-10T00:09:52.876Z,9.10
2022-10-10T00:12:19.457Z,9.11
2022-10-10T00:14:45.998Z,9.13
2022-10-10T00:17:12.562Z,9.11
2022-10-10T00:19:39.098Z,9.17
2022-10-10T00:22:05.661Z,9.21
2022-10-10T00:24:32.184Z,9.12
2022-10-10T00:26:58.785Z,9.20
2022-10-10T00:29:25.538Z,9.15
2022-10-10T00:31:52.128Z,9.14
2022-10-10T00:34:18.670Z,9.14
2022-10-10T00:36:45.201Z,9.08
2022-10-10T00:39:11.829Z,9.06
2022-10-10T00:41:38.372Z,9.03
2022-10-10T00:44:15.479Z,9.12
2022-10-10T00:46:42.502Z,8.99
2022-10-10T00:49:14.614Z,8.98
2022-10-10T00:51:42.140Z,8.88
2022-10-10T00:54:11.612Z,9.02
2022-10-10T00:56:44.059Z,8.94
2022-10-10T00:59:12.482Z,8.91
2022-10-10T01:01:41.142Z,8.90
2022-10-10T01:04:45.247Z,8.94
2022-10-10T01:07:24.389Z,8.86
2022-10-10T01:09:54.406Z,8.87
2022-10-10T01:12:33.338Z,8.89
2022-10-10T01:15:03.594Z,8.76
2022-10-10T01:17:34.893Z,8.72
2022-10-10T01:20:18.059Z,8.64
2022-10-10T01:23:17.275Z,8.76
2022-10-10T01:25:52.820Z,8.76
2022-10-10T01:28:44.380Z,8.66
2022-10-10T01:31:13.825Z,8.66
2022-10-10T01:33:59.463Z,8.64
2022-10-10T01:36:53.086Z,8.54
2022-10-10T01:39:29.164Z,8.53
2022-10-10T01:42:06.791Z,8.55
2022-10-10T01:44:33.357Z,8.53
2022-10-10T01:46:59.939Z,8.53
2022-10-10T01:49:31.421Z,8.56
2022-10-10T01:52:14.277Z,8.57
2022-10-10T01:54:46.929Z,8.50
2022-10-10T01:57:40.521Z,8.50
2022-10-10T02:00:09.668Z,8.43
2022-10-10T02:03:00.362Z,8.46
2022-10-10T02:05:53.118Z,8.41
2022-10-10T02:08:32.739Z,8.41
2022-10-10T02:11:00.543Z,8.30
2022-10-10T02:13:44.683Z,8.32
2022-10-10T02:16:18.588Z,8.36
2022-10-10T02:18:47.074Z,8.36
2022-10-10T02:21:15.652Z,8.38
2022-10-10T02:23:45.860Z,8.26
2022-10-10T02:26:15.472Z,8.11
2022-10-10T02:28:45.982Z,8.14
2022-10-10T02:31:18.335Z,8.05
2022-10-10T02:33:50.316Z,8.08
2022-10-10T02:36:18.806Z,8.14
2022-10-10T02:38:47.388Z,8.18
2022-10-10T02:41:18.246Z,8.12
2022-10-10T02:43:45.028Z,8.01
2022-10-10T02:46:13.939Z,8.00
2022-10-10T02:48:41.641Z,7.97
2022-10-10T02:51:09.628Z,7.89
2022-10-10T02:53:37.783Z,8.01
2022-10-10T02:56:05.133Z,8.00
2022-10-10T02:58:31.729Z,7.88
2022-10-10T03:00:58.267Z,7.99
2022-10-10T03:03:25.747Z,7.86
2022-10-10T03:05:52.385Z,7.79
2022-10-10T03:08:18.918Z,7.76
2022-10-10T03:11:00.164Z,7.77
2022-10-10T03:13:27.077Z,7.70
2022-10-10T03:15:53.791Z,7.65
2022-10-10T03:18:20.409Z,7.61
2022-10-10T03:20:50.955Z,7.69
2022-10-10T03:23:17.555Z,7.72
2022-10-10T03:25:44.300Z,7.78
2022-10-10T03:28:11.769Z,7.71
2022-10-10T03:30:39.226Z,7.66
2022-10-10T03:33:06.065Z,7.74
2022-10-10T03:35:32.767Z,7.69
2022-10-10T03:37:59.671Z,7.62
2022-10-10T03:40:27.501Z,7.63
2022-10-10T03:42:54.362Z,7.44
2022-10-10T03:45:21.137Z,7.46
2022-10-10T03:47:48.838Z,7.49
2022-10-10T03:50:15.428Z,7.47
2022-10-10T03:52:42.111Z,7.43
2022-10-10T03:55:08.867Z,7.41
2022-10-10T03:57:35.430Z,7.39
2022-10-10T04:00:01.939Z,7.39
2022-10-10T04:02:31.433Z,7.35
2022-10-10T04:04:57.980Z,7.39
2022-10-10T04:07:24.720Z,7.42
2022-10-10T04:09:51.276Z,7.38
2022-10-10T04:12:17.885Z,7.28
2022-10-10T04:14:44.416Z,7.29
2022-10-10T04:17:10.948Z,7.24
2022-10-10T04:19:37.593Z,7.26
2022-10-10T04:22:07.831Z,7.27
2022-10-10T04:24:36.866Z,7.32
2022-10-10T04:27:03.654Z,7.35
2022-10-10T04:29:30.182Z,7.43
2022-10-10T04:31:56.933Z,7.28
2022-10-10T04:34:23.491Z,7.24
2022-10-10T04:36:50.101Z,7.34
2022-10-10T04:39:16.643Z,7.36
2022-10-10T04:41:43.219Z,7.32
2022-10-10T04:44:09.732Z,7.32
2022-10-10T04:46:36.230Z,7.37
2022-10-10T04:49:03.081Z,7.36
2022-10-10T04:51:29.601Z,7.31
2022-10-10T04:53:56.134Z,7.35
2022-10-10T04:56:22.727Z,7.32
2022-10-10T04:58:49.388Z,7.29
2022-10-10T05:01:15.995Z,7.25
2022-10-10T05:03:42.736Z,7.26
2022-10-10T05:06:09.274Z,7.24
2022-10-10T05:08:35.913Z,7.24
2022-10-10T05:11:02.523Z,7.22
2022-10-10T05:13:29.034Z,7.15
2022-10-10T05:15:55.560Z,7.20
2022-10-10T05:18:22.210Z,7.25
2022-10-10T05:20:48.960Z,7.35
2022-10-10T05:23:16.416Z,7.33
2022-10-10T05:25:50.826Z,7.28
2022-10-10T05:28:18.081Z,7.19
2022-10-10T05:30:44.706Z,7.20
2022-10-10T05:33:11.435Z,7.25
2022-10-10T05:35:37.997Z,7.30
2022-10-10T05:38:05.214Z,7.23
2022-10-10T05:40:32.009Z,7.30
2022-10-10T05:42:58.558Z,7.25
2022-10-10T05:45:25.085Z,7.24
2022-10-10T05:47:51.616Z,7.35
2022-10-10T05:50:29.777Z,7.41
2022-10-10T05:52:56.359Z,7.33
2022-10-10T05:55:22.878Z,7.41
2022-10-10T05:57:49.373Z,7.34
2022-10-10T06:00:16.051Z,7.52
2022-10-10T06:02:42.595Z,7.46
2022-10-10T06:05:09.555Z,7.50
2022-10-10T06:07:52.302Z,7.48
2022-10-10T06:10:22.620Z,7.43
2022-10-10T06:12:49.375Z,7.43
2022-10-10T06:15:16.245Z,7.40
2022-10-10T06:17:42.778Z,7.45
2022-10-10T06:20:09.895Z,7.53
2022-10-10T06:22:36.733Z,7.54
2022-10-10T06:25:03.700Z,7.59
2022-10-10T06:27:30.213Z,7.68
2022-10-10T06:29:56.711Z,7.80
2022-10-10T06:32:23.266Z,7.84
2022-10-10T06:34:49.712Z,7.79
2022-10-10T06:37:16.301Z,7.95
2022-10-10T06:39:42.883Z,8.03
2022-10-10T06:42:09.438Z,8.15
2022-10-10T06:44:36.025Z,8.28
2022-10-10T06:47:02.512Z,8.50
2022-10-10T06:49:29.634Z,8.53
2022-10-10T06:51:56.187Z,8.53
2022-10-10T06:54:22.782Z,8.70
2022-10-10T06:56:49.571Z,8.75
2022-10-10T06:59:16.143Z,8.61
2022-10-10T07:01:42.922Z,8.85
2022-10-10T07:04:11.543Z,9.08
2022-10-10T07:06:38.131Z,9.22
2022-10-10T07:09:05.344Z,9.25
2022-10-10T07:11:32.338Z,9.31
2022-10-10T07:13:58.916Z,9.40
2022-10-10T07:16:25.973Z,9.52
2022-10-10T07:18:52.584Z,9.49
2022-10-10T07:21:19.166Z,9.57
2022-10-10T07:23:45.742Z,9.64
2022-10-10T07:26:15.041Z,9.87
2022-10-10T07:28:41.726Z,9.87
2022-10-10T07:31:10.934Z,10.05
2022-10-10T07:33:49.879Z,9.96
2022-10-10T07:36:18.329Z,10.04
2022-10-10T07:38:44.865Z,10.12
2022-10-10T07:41:14.547Z,10.36
2022-10-10T07:43:41.462Z,10.35
2022-10-10T07:46:17.963Z,10.47
2022-10-10T07:48:45.025Z,10.53
2022-10-10T07:51:12.634Z,10.68
2022-10-10T07:53:40.715Z,10.72
2022-10-10T07:56:08.770Z,10.90
2022-10-10T07:58:35.795Z,11.05
2022-10-10T08:01:08.384Z,11.16
2022-10-10T08:03:35.975Z,11.40
2022-10-10T08:06:04.631Z,11.44
2022-10-10T08:08:34.124Z,11.49
2022-10-10T08:11:01.602Z,11.72
2022-10-10T08:13:28.202Z,11.75
2022-10-10T08:15:54.839Z,12.09
2022-10-10T08:18:21.398Z,12.06
2022-10-10T08:20:47.970Z,12.28
2022-10-10T08:23:14.533Z,12.31
2022-10-10T08:25:41.113Z,12.47
2022-10-10T08:28:07.657Z,12.71
2022-10-10T08:30:34.263Z,12.66
2022-10-10T08:33:01.515Z,12.87
2022-10-10T08:35:28.171Z,12.98
2022-10-10T08:37:55.115Z,13.10
2022-10-10T08:40:22.292Z,13.08
2022-10-10T08:42:53.192Z,13.29
2022-10-10T08:45:24.594Z,13.36
2022-10-10T08:47:57.289Z,13.48
2022-10-10T08:50:29.269Z,13.53
2022-10-10T08:52:58.174Z,13.75
2022-10-10T08:55:33.563Z,13.75
2022-10-10T08:58:04.736Z,13.93
2022-10-10T09:00:36.994Z,14.10
2022-10-10T09:03:12.915Z,14.27
2022-10-10T09:05:42.458Z,14.44
2022-10-10T09:08:23.192Z,14.54
2022-10-10T09:11:00.571Z,14.68
2022-10-10T09:13:57.771Z,14.69
2022-10-10T09:16:40.523Z,14.94
2022-10-10T09:19:24.572Z,14.99
2022-10-10T09:21:57.155Z,15.09
2022-10-10T09:24:42.542Z,15.25
2022-10-10T09:27:16.426Z,15.21
2022-10-10T09:30:03.239Z,15.47
2022-10-10T09:32:45.239Z,15.57
2022-10-10T09:35:22.779Z,15.75
2022-10-10T09:37:53.586Z,15.77
2022-10-10T09:40:38.474Z,15.74
2022-10-10T09:43:18.522Z,15.73
2022-10-10T09:45:51.828Z,15.75
2022-10-10T09:48:19.402Z,15.84
2022-10-10T09:50:45.885Z,15.85
2022-10-10T09:53:17.031Z,15.97
2022-10-10T09:55:46.196Z,16.01
2022-10-10T09:58:20.563Z,16.04
2022-10-10T10:00:47.504Z,16.20
2022-10-10T10:03:17.570Z,16.45
2022-10-10T10:06:06.033Z,16.56
2022-10-10T10:08:35.406Z,16.57
2022-10-10T10:11:04.141Z,16.62
2022-10-10T10:13:36.482Z,16.79
2022-10-10T10:16:06.159Z,16.74
2022-10-10T10:18:39.547Z,17.04
2022-10-10T10:21:23.578Z,16.84
2022-10-10T10:23:58.129Z,16.87
2022-10-10T10:26:43.753Z,17.15
2022-10-10T10:29:28.917Z,17.25
2022-10-10T10:32:20.454Z,17.22
2022-10-10T10:35:18.262Z,17.44
2022-10-10T10:38:40.650Z,17.64
2022-10-10T10:41:25.885Z,17.68
2022-10-10T10:44:13.805Z,17.73
2022-10-10T10:47:07.105Z,18.00
2022-10-10T10:49:43.625Z,18.20
2022-10-10T10:52:18.923Z,18.44
2022-10-10T10:55:12.929Z,18.50
2022-10-10T10:58:16.358Z,18.36
2022-10-10T11:01:20.241Z,18.54
2022-10-10T11:05:21.053Z,18.52
2022-10-10T11:07:17.336Z,18.67
2022-10-10T11:10:02.750Z,19.16
2022-10-10T11:13:06.956Z,19.06
2022-10-10T11:18:46.740Z,19.16
2022-10-10T11:21:23.374Z,19.46
2022-10-10T11:23:57.651Z,19.52
2022-10-10T11:26:31.997Z,19.48
2022-10-10T11:29:04.807Z,19.61
2022-10-10T11:31:41.029Z,19.63
2022-10-10T11:34:18.659Z,19.70
2022-10-10T11:36:46.918Z,19.74
2022-10-10T11:39:50.123Z,19.75
2022-10-10T11:42:24.924Z,19.76
2022-10-10T11:45:00.613Z,19.69
2022-10-10T11:47:52.324Z,19.87
2022-10-10T11:50:26.489Z,20.11
2022-10-10T11:53:05.341Z,20.11
2022-10-10T11:55:41.479Z,20.17
2022-10-10T11:58:10.680Z,20.28
2022-10-10T12:00:48.633Z,20.41
2022-10-10T12:03:15.287Z,20.37
2022-10-10T12:05:50.840Z,20.41
2022-10-10T12:08:18.143Z,20.40
2022-10-10T12:10:47.984Z,20.16
2022-10-10T12:13:17.533Z,20.22
2022-10-10T12:15:49.904Z,20.28
2022-10-10T12:18:38.238Z,20.10
2022-10-10T12:21:08.399Z,20.07
2022-10-10T12:23:35.533Z,20.04
2022-10-10T12:26:02.711Z,19.97
2022-10-10T12:28:57.003Z,20.32
2022-10-10T12:31:41.506Z,20.29
2022-10-10T12:34:36.097Z,20.52
2022-10-10T12:37:22.111Z,20.26
2022-10-10T12:40:15.098Z,19.82
2022-10-10T12:42:47.449Z,19.98
2022-10-10T12:45:29.295Z,20.11
2022-10-10T12:48:05.379Z,19.94
2022-10-10T12:50:41.764Z,20.10
2022-10-10T12:53:21.979Z,20.14
2022-10-10T12:55:52.112Z,20.07
2022-10-10T12:58:54.200Z,20.09
2022-10-10T13:01:28.301Z,20.43
2022-10-10T13:03:56.218Z,20.22
2022-10-10T13:06:59.899Z,20.04
2022-10-10T13:09:34.898Z,20.17
2022-10-10T13:12:05.610Z,20.34
2022-10-10T13:14:45.340Z,20.56
2022-10-10T13:20:00.281Z,20.34
2022-10-10T13:22:29.816Z,20.28
2022-10-10T13:24:57.782Z,20.27
2022-10-10T13:27:28.365Z,20.33
2022-10-10T13:29:55.825Z,20.56
2022-10-10T13:32:25.753Z,20.53
2022-10-10T13:34:56.322Z,20.54
2022-10-10T13:37:23.758Z,20.35
2022-10-10T13:39:52.360Z,20.24
2022-10-10T13:42:35.724Z,20.53
2022-10-10T13:45:26.594Z,20.23
2022-10-10T13:48:02.930Z,20.46
2022-10-10T13:51:01.782Z,20.57
2022-10-10T13:53:28.933Z,20.54
2022-10-10T13:55:58.954Z,20.39
2022-10-10T13:58:27.674Z,20.16
2022-10-10T14:00:59.552Z,19.95
2022-10-10T14:03:27.494Z,19.97
2022-10-10T14:05:54.293Z,19.50
2022-10-10T14:08:26.121Z,19.50
2022-10-10T14:11:02.163Z,19.79
2022-10-10T14:13:31.019Z,19.71
2022-10-10T14:16:12.986Z,19.73
2022-10-10T14:18:39.516Z,19.59
2022-10-10T14:21:08.240Z,19.44
2022-10-10T14:23:35.397Z,19.45
2022-10-10T14:26:02.189Z,19.60
2022-10-10T14:28:31.244Z,19.48
2022-10-10T14:30:58.114Z,19.63
2022-10-10T14:33:26.070Z,19.56
2022-10-10T14:35:54.497Z,19.63
2022-10-10T14:38:21.117Z,19.57
2022-10-10T14:40:50.039Z,19.36
2022-10-10T14:43:17.491Z,19.19
2022-10-10T14:45:45.039Z,19.33
2022-10-10T14:48:12.188Z,19.42
2022-10-10T14:50:46.062Z,19.29
2022-10-10T14:53:13.914Z,19.30
2022-10-10T14:55:44.082Z,18.94
2022-10-10T14:58:20.150Z,18.88
2022-10-10T15:00:47.710Z,18.64
2022-10-10T15:03:14.775Z,18.83
2022-10-10T15:05:42.024Z,18.68
2022-10-10T15:08:08.603Z,18.78
2022-10-10T15:10:35.575Z,19.00
2022-10-10T15:13:03.035Z,19.06
2022-10-10T15:15:29.666Z,19.04
2022-10-10T15:17:59.605Z,18.85
2022-10-10T15:20:30.918Z,18.84
2022-10-10T15:23:04.305Z,18.91
2022-10-10T15:25:33.938Z,18.70
2022-10-10T15:28:02.589Z,18.71
2022-10-10T15:30:29.372Z,18.79
2022-10-10T15:32:55.973Z,18.82
2022-10-10T15:35:24.352Z,18.86
2022-10-10T15:37:51.125Z,18.88
2022-10-10T15:40:23.231Z,18.68
2022-10-10T15:42:50.613Z,18.80
2022-10-10T15:45:37.338Z,18.75
2022-10-10T15:48:05.492Z,18.72
2022-10-10T15:50:34.309Z,18.72
2022-10-10T15:53:00.838Z,18.46
2022-10-10T15:55:27.424Z,18.38
2022-10-10T15:57:54.025Z,18.31
2022-10-10T16:00:20.674Z,18.46
2022-10-10T16:02:47.216Z,18.33
2022-10-10T16:05:13.781Z,18.29
2022-10-10T16:07:46.997Z,18.19
2022-10-10T16:10:14.812Z,18.31
2022-10-10T16:12:41.414Z,18.29
2022-10-10T16:15:08.482Z,18.20
2022-10-10T16:17:35.047Z,17.87
2022-10-10T16:20:02.131Z,18.02
2022-10-10T16:22:28.739Z,17.84
2022-10-10T16:27:42.694Z,17.21
2022-10-10T16:30:09.806Z,16.73
2022-10-10T16:32:41.731Z,16.49
2022-10-10T16:35:10.039Z,16.25
2022-10-10T16:37:36.610Z,16.13
2022-10-10T16:40:03.374Z,16.19
2022-10-10T16:42:30.047Z,16.10
2022-10-10T16:44:56.763Z,16.09
2022-10-10T16:47:23.360Z,15.93
2022-10-10T16:49:49.890Z,15.66
2022-10-10T16:52:16.445Z,15.79
2022-10-10T16:54:43.015Z,15.79
2022-10-10T16:57:09.573Z,15.69
2022-10-10T16:59:36.269Z,16.01
2022-10-10T17:02:03.044Z,15.77
2022-10-10T17:04:29.593Z,15.58
2022-10-10T17:06:56.131Z,15.52
2022-10-10T17:09:23.820Z,15.46
2022-10-10T17:11:51.478Z,15.66
2022-10-10T17:14:18.795Z,15.59
2022-10-10T17:17:10.630Z,15.69
2022-10-10T17:19:32.554Z,15.52
2022-10-10T17:21:59.646Z,15.55
2022-10-10T17:24:26.386Z,15.50
2022-10-10T17:26:52.978Z,15.46
2022-10-10T17:29:19.714Z,15.38
2022-10-10T17:31:46.296Z,15.42
2022-10-10T17:34:13.090Z,15.48
2022-10-10T17:36:39.699Z,15.47
2022-10-10T17:39:07.576Z,15.37
2022-10-10T17:41:34.524Z,15.41
2022-10-10T17:44:01.153Z,15.12
2022-10-10T17:46:34.810Z,14.61
2022-10-10T17:49:07.015Z,14.45
2022-10-10T17:51:35.256Z,14.49
2022-10-10T17:54:03.026Z,14.29
2022-10-10T17:56:29.911Z,14.22
2022-10-10T17:58:56.637Z,14.07
2022-10-10T18:01:23.474Z,14.30
2022-10-10T18:03:51.218Z,14.39
2022-10-10T18:06:21.195Z,14.14
2022-10-10T18:08:52.055Z,14.36
2022-10-10T18:11:21.798Z,14.07
2022-10-10T18:13:48.488Z,14.14
2022-10-10T18:16:18.775Z,14.29
2022-10-10T18:18:51.005Z,14.02
2022-10-10T18:21:20.026Z,13.94
2022-10-10T18:23:46.712Z,13.94
2022-10-10T18:26:16.499Z,13.97
2022-10-10T18:28:44.067Z,14.15
2022-10-10T18:31:20.003Z,14.07
2022-10-10T18:33:46.855Z,14.16
2022-10-10T18:36:15.814Z,14.16
2022-10-10T18:38:42.473Z,14.19
2022-10-10T18:41:15.022Z,14.12
2022-10-10T18:43:44.527Z,13.85
2022-10-10T18:46:14.445Z,13.91
2022-10-10T18:48:42.234Z,13.80
2022-10-10T18:51:12.705Z,13.77
2022-10-10T18:53:41.486Z,13.81
2022-10-10T18:56:08.788Z,14.04
2022-10-10T18:58:36.323Z,14.10
2022-10-10T19:01:06.969Z,13.99
2022-10-10T19:03:34.882Z,13.96
2022-10-10T19:06:03.235Z,13.83
2022-10-10T19:08:31.780Z,13.72
2022-10-10T19:10:58.619Z,13.41
2022-10-10T19:13:25.289Z,13.35
2022-10-10T19:15:52.285Z,13.40
2022-10-10T19:18:20.037Z,13.41
2022-10-10T19:20:46.762Z,13.44
2022-10-10T19:23:14.930Z,13.36
2022-10-10T19:25:48.288Z,13.13
2022-10-10T19:28:14.963Z,13.38
2022-10-10T19:30:43.042Z,13.44
2022-10-10T19:33:09.721Z,13.44
2022-10-10T19:35:42.494Z,13.29
2022-10-10T19:38:10.297Z,13.18
2022-10-10T19:40:44.960Z,13.17
2022-10-10T19:43:11.792Z,13.25
2022-10-10T19:45:44.518Z,13.10
2022-10-10T19:48:11.942Z,13.13
2022-10-10T19:50:43.665Z,13.09
2022-10-10T19:53:14.556Z,13.03
2022-10-10T19:55:42.721Z,13.08
2022-10-10T19:58:09.994Z,13.12
2022-10-10T20:00:37.689Z,13.10
2022-10-10T20:03:04.764Z,13.14
2022-10-10T20:05:31.467Z,13.12
2022-10-10T20:07:57.997Z,13.10
2022-10-10T20:10:24.585Z,12.97
2022-10-10T20:12:51.434Z,12.95
2022-10-10T20:15:18.040Z,12.76
2022-10-10T20:17:44.797Z,12.79
2022-10-10T20:20:11.920Z,12.82
2022-10-10T20:22:38.673Z,12.83
2022-10-10T20:25:06.311Z,12.85
2022-10-10T20:27:34.578Z,12.88
2022-10-10T20:30:01.196Z,12.80
2022-10-10T20:32:27.859Z,12.83
2022-10-10T20:34:54.899Z,12.71
2022-10-10T20:37:21.492Z,12.57
2022-10-10T20:39:48.043Z,12.56
2022-10-10T20:42:14.756Z,12.40
2022-10-10T20:44:41.650Z,12.38
2022-10-10T20:47:08.281Z,12.37
2022-10-10T20:49:34.954Z,12.36
2022-10-10T20:52:01.469Z,12.40
2022-10-10T20:54:28.112Z,12.32
2022-10-10T20:56:54.626Z,12.34
2022-10-10T20:59:22.417Z,12.15
2022-10-10T21:01:48.964Z,12.15
2022-10-10T21:04:15.715Z,12.14
2022-10-10T21:06:42.838Z,12.14
2022-10-10T21:09:11.864Z,12.18
2022-10-10T21:11:39.704Z,12.08
2022-10-10T21:14:06.841Z,12.07
2022-10-10T21:16:39.142Z,12.17
2022-10-10T21:19:09.138Z,12.16
2022-10-10T21:21:36.549Z,12.03
2022-10-10T21:24:05.627Z,11.98
2022-10-10T21:26:32.546Z,11.91
2022-10-10T21:29:00.766Z,11.91
2022-10-10T21:31:32.551Z,11.86
2022-10-10T21:34:02.107Z,11.80
2022-10-10T21:36:29.670Z,11.85
2022-10-10T21:38:56.901Z,11.80
2022-10-10T21:41:23.770Z,11.80
2022-10-10T21:43:54.611Z,11.81
2022-10-10T21:46:29.753Z,11.73
2022-10-10T21:48:58.132Z,11.68
2022-10-10T21:51:25.682Z,11.69
2022-10-10T21:53:54.631Z,11.72
2022-10-10T21:56:21.263Z,11.71
2022-10-10T21:58:47.853Z,11.69
2022-10-10T22:01:19.952Z,11.57
2022-10-10T22:03:48.929Z,11.60
2022-10-10T22:06:18.355Z,11.56
2022-10-10T22:08:46.716Z,11.48
2022-10-10T22:11:16.118Z,11.50
2022-10-10T22:13:43.508Z,11.46
2022-10-10T22:16:10.844Z,11.51
2022-10-10T22:18:38.867Z,11.48
2022-10-10T22:21:07.674Z,11.46
2022-10-10T22:23:34.378Z,11.34
2022-10-10T22:26:01.024Z,11.32
2022-10-10T22:28:28.150Z,11.22
2022-10-10T22:30:54.856Z,11.28
2022-10-10T22:33:21.520Z,11.36
2022-10-10T22:35:48.075Z,11.34
2022-10-10T22:38:14.678Z,11.26
2022-10-10T22:40:41.222Z,11.19
2022-10-10T22:43:07.787Z,11.15
2022-10-10T22:45:34.408Z,11.02
2022-10-10T22:48:01.018Z,10.88
2022-10-10T22:50:27.637Z,10.80
2022-10-10T22:52:54.186Z,10.75
2022-10-10T22:55:20.750Z,10.69
2022-10-10T22:57:47.387Z,10.66
2022-10-10T23:00:14.820Z,10.60
2022-10-10T23:02:41.417Z,10.53
2022-10-10T23:05:08.518Z,10.55
2022-10-10T23:07:35.574Z,10.53
2022-10-10T23:10:02.260Z,10.46
2022-10-10T23:12:28.802Z,10.44
2022-10-10T23:14:55.396Z,10.38
2022-10-10T23:17:22.041Z,10.38
2022-10-10T23:19:48.693Z,10.38
2022-10-10T23:22:15.177Z,10.34
2022-10-10T23:24:41.817Z,10.31
2022-10-10T23:27:08.378Z,10.23
2022-10-10T23:29:34.955Z,10.07
2022-10-10T23:32:01.521Z,10.03
2022-10-10T23:34:28.111Z,9.96
2022-10-10T23:36:54.755Z,10.04
2022-10-10T23:39:21.299Z,9.95
2022-10-10T23:41:47.930Z,9.90
2022-10-10T23:44:14.497Z,9.56
2022-10-10T23:46:41.047Z,9.30
2022-10-10T23:49:07.576Z,9.30
2022-10-10T23:51:34.117Z,9.42
2022-10-10T23:54:00.666Z,9.43
2022-10-10T23:56:27.214Z,9.38
2022-10-10T23:58:53.896Z,9.18
